createdAt,value
2022-12-18T00:02:13.983Z,48.02
2022-12-18T00:04:40.590Z,48.07
2022-12-18T00:07:07.244Z,47.90
2022-12-18T00:09:40.005Z,48.56
2022-12-18T00:14:43.153Z,48.55
2022-12-18T00:17:10.017Z,48.53
2022-12-18T00:19:36.674Z,48.49
2022-12-18T00:22:03.671Z,49.54
2022-12-18T00:24:30.344Z,49.70
2022-12-18T00:26:57.247Z,49.84
2022-12-18T00:29:23.786Z,50.49
2022-12-18T00:31:50.950Z,49.58
2022-12-18T00:34:17.961Z,49.37
2022-12-18T00:36:44.593Z,48.64
2022-12-18T00:39:13.665Z,48.67
2022-12-18T00:41:59.024Z,49.44
2022-12-18T00:44:26.172Z,50.34
2022-12-18T00:46:52.777Z,51.12
2022-12-18T00:49:20.538Z,50.96
2022-12-18T00:51:48.510Z,51.39
2022-12-18T00:54:16.185Z,51.81
2022-12-18T00:56:49.449Z,52.38
2022-12-18T00:59:17.477Z,52.52
2022-12-18T01:01:45.003Z,52.15
2022-12-18T01:04:12.581Z,52.62
2022-12-18T01:06:39.431Z,53.98
2022-12-18T01:09:07.288Z,54.61
2022-12-18T01:11:36.713Z,54.28
2022-12-18T01:14:05.224Z,54.86
2022-12-18T01:16:32.039Z,53.10
2022-12-18T01:18:58.711Z,53.65
2022-12-18T01:21:27.946Z,52.72
2022-12-18T01:23:56.473Z,54.96
2022-12-18T01:26:25.020Z,54.30
2022-12-18T01:28:51.920Z,53.87
2022-12-18T01:31:32.092Z,55.14
2022-12-18T01:34:00.879Z,55.67
2022-12-18T01:36:32.888Z,55.39
2022-12-18T01:39:08.360Z,54.90
2022-12-18T01:41:54.497Z,53.61
2022-12-18T01:44:58.828Z,53.58
2022-12-18T01:47:33.719Z,53.46
2022-12-18T01:50:03.976Z,52.33
2022-12-18T01:52:33.598Z,51.60
2022-12-18T01:55:02.612Z,51.20
2022-12-18T01:57:30.207Z,51.07
2022-12-18T02:00:02.308Z,51.22
2022-12-18T02:02:41.787Z,50.85
2022-12-18T02:05:10.000Z,51.61
2022-12-18T02:07:52.381Z,51.35
2022-12-18T02:10:31.858Z,51.76
2022-12-18T02:13:15.893Z,52.47
2022-12-18T02:16:07.049Z,52.03
2022-12-18T02:18:39.561Z,52.23
2022-12-18T02:21:24.925Z,52.15
2022-12-18T02:24:14.929Z,51.55
2022-12-18T02:26:51.781Z,51.17
2022-12-18T02:29:28.388Z,51.59
2022-12-18T02:32:02.075Z,52.08
2022-12-18T02:34:35.890Z,51.82
2022-12-18T02:37:06.974Z,52.12
2022-12-18T02:39:37.374Z,51.92
2022-12-18T02:42:09.015Z,51.34
2022-12-18T02:44:44.388Z,50.42
2022-12-18T02:47:13.757Z,49.99
2022-12-18T02:49:58.367Z,49.38
2022-12-18T02:52:35.399Z,49.07
2022-12-18T02:55:19.819Z,48.39
2022-12-18T02:58:49.882Z,47.48
2022-12-18T03:01:54.634Z,46.91
2022-12-18T03:04:30.597Z,46.33
2022-12-18T03:07:02.830Z,46.00
2022-12-18T03:09:36.336Z,46.13
2022-12-18T03:12:24.171Z,45.94
2022-12-18T03:15:01.819Z,45.50
2022-12-18T03:17:32.861Z,45.61
2022-12-18T03:20:04.990Z,45.22
2022-12-18T03:22:35.569Z,45.39
2022-12-18T03:25:07.284Z,45.55
2022-12-18T03:27:39.368Z,44.99
2022-12-18T03:30:13.211Z,44.91
2022-12-18T03:32:56.536Z,44.77
2022-12-18T03:35:31.861Z,44.71
2022-12-18T03:37:58.682Z,44.87
2022-12-18T03:40:35.244Z,44.67
2022-12-18T03:43:11.807Z,44.50
2022-12-18T03:45:48.056Z,44.81
2022-12-18T03:48:23.571Z,45.10
2022-12-18T03:50:58.419Z,44.95
2022-12-18T03:53:50.554Z,44.87
2022-12-18T03:56:23.494Z,45.41
2022-12-18T03:58:53.076Z,45.35
2022-12-18T04:01:29.663Z,45.01
2022-12-18T04:04:00.238Z,45.15
2022-12-18T04:06:27.697Z,45.10
2022-12-18T04:08:54.893Z,44.81
2022-12-18T04:11:24.801Z,45.03
2022-12-18T04:13:51.740Z,45.10
2022-12-18T04:16:22.351Z,44.86
2022-12-18T04:18:52.894Z,44.63
2022-12-18T04:21:21.314Z,44.75
2022-12-18T04:23:49.961Z,45.38
2022-12-18T04:26:18.971Z,46.26
2022-12-18T04:28:55.140Z,46.70
2022-12-18T04:31:22.610Z,47.57
2022-12-18T04:33:49.559Z,47.96
2022-12-18T04:36:16.986Z,48.83
2022-12-18T04:38:45.461Z,47.67
2022-12-18T04:41:15.474Z,47.07
2022-12-18T04:43:44.562Z,46.58
2022-12-18T04:46:11.389Z,45.51
2022-12-18T04:48:38.665Z,45.54
2022-12-18T04:51:06.968Z,45.10
2022-12-18T04:53:34.309Z,45.10
2022-12-18T04:56:05.139Z,44.92
2022-12-18T04:58:31.776Z,44.36
2022-12-18T05:00:58.446Z,44.31
2022-12-18T05:03:25.097Z,44.81
2022-12-18T05:05:52.326Z,44.39
2022-12-18T05:08:19.124Z,44.24
2022-12-18T05:10:47.106Z,44.20
2022-12-18T05:13:13.766Z,44.21
2022-12-18T05:15:40.403Z,44.26
2022-12-18T05:18:07.092Z,44.34
2022-12-18T05:20:34.128Z,44.37
2022-12-18T05:23:00.689Z,44.38
2022-12-18T05:25:27.654Z,44.47
2022-12-18T05:27:54.237Z,44.51
2022-12-18T05:30:20.897Z,44.78
2022-12-18T05:32:47.519Z,44.67
2022-12-18T05:35:14.430Z,44.37
2022-12-18T05:37:43.291Z,44.69
2022-12-18T05:40:11.322Z,44.44
2022-12-18T05:42:38.055Z,44.33
2022-12-18T05:45:05.658Z,44.51
2022-12-18T05:47:32.489Z,44.23
2022-12-18T05:49:59.080Z,44.17
2022-12-18T05:52:25.679Z,44.82
2022-12-18T05:54:52.252Z,44.77
2022-12-18T05:57:18.814Z,44.13
2022-12-18T05:59:45.386Z,44.38
2022-12-18T06:02:12.522Z,44.48
2022-12-18T06:04:39.220Z,44.21
2022-12-18T06:07:05.999Z,44.82
2022-12-18T06:09:33.129Z,44.55
2022-12-18T06:11:59.998Z,44.79
2022-12-18T06:14:26.801Z,45.49
2022-12-18T06:16:53.464Z,46.03
2022-12-18T06:19:20.080Z,46.33
2022-12-18T06:21:47.667Z,47.12
2022-12-18T06:24:14.599Z,46.66
2022-12-18T06:26:41.480Z,46.89
2022-12-18T06:29:09.036Z,46.21
2022-12-18T06:31:36.505Z,46.17
2022-12-18T06:34:04.432Z,45.59
2022-12-18T06:36:32.342Z,45.17
2022-12-18T06:38:59.489Z,45.18
2022-12-18T06:41:26.627Z,45.18
2022-12-18T06:43:58.144Z,45.30
2022-12-18T06:46:26.552Z,45.25
2022-12-18T06:48:53.687Z,45.44
2022-12-18T06:51:21.968Z,45.26
2022-12-18T06:53:48.705Z,45.10
2022-12-18T06:56:15.425Z,46.13
2022-12-18T06:58:42.911Z,46.08
2022-12-18T07:01:11.404Z,46.66
2022-12-18T07:03:39.878Z,46.71
2022-12-18T07:06:07.581Z,46.49
2022-12-18T07:08:34.722Z,46.83
2022-12-18T07:11:04.690Z,47.12
2022-12-18T07:13:31.937Z,47.86
2022-12-18T07:16:22.602Z,47.32
2022-12-18T07:18:51.992Z,47.42
2022-12-18T07:21:20.581Z,48.79
2022-12-18T07:23:48.941Z,48.71
2022-12-18T07:26:18.220Z,48.70
2022-12-18T07:28:44.905Z,48.74
2022-12-18T07:31:21.577Z,48.20
2022-12-18T07:33:49.566Z,48.03
2022-12-18T07:36:16.597Z,47.89
2022-12-18T07:38:43.151Z,47.83
2022-12-18T07:41:14.351Z,47.45
2022-12-18T07:43:42.224Z,47.67
2022-12-18T07:46:10.385Z,47.39
2022-12-18T07:48:36.953Z,47.37
2022-12-18T07:51:06.133Z,47.14
2022-12-18T07:53:33.989Z,47.10
2022-12-18T07:56:26.406Z,46.94
2022-12-18T07:58:50.106Z,46.94
2022-12-18T08:01:16.751Z,46.83
2022-12-18T08:03:43.871Z,47.27
2022-12-18T08:06:10.996Z,47.52
2022-12-18T08:08:37.856Z,49.60
2022-12-18T08:11:04.930Z,53.47
2022-12-18T08:13:32.152Z,54.71
2022-12-18T08:16:04.199Z,52.66
2022-12-18T08:18:30.809Z,52.53
2022-12-18T08:20:57.422Z,53.01
2022-12-18T08:23:26.511Z,52.63
2022-12-18T08:25:55.310Z,51.13
2022-12-18T08:28:21.965Z,47.97
2022-12-18T08:30:53.026Z,46.35
2022-12-18T08:33:19.960Z,45.25
2022-12-18T08:35:46.659Z,45.46
2022-12-18T08:38:13.297Z,43.26
2022-12-18T08:40:39.895Z,41.95
2022-12-18T08:43:25.249Z,40.17
2022-12-18T08:45:51.888Z,38.99
2022-12-18T08:48:22.208Z,39.77
2022-12-18T08:51:00.049Z,40.19
2022-12-18T08:53:31.435Z,41.00
2022-12-18T08:56:00.724Z,41.02
2022-12-18T08:58:27.271Z,39.67
2022-12-18T09:00:53.949Z,42.04
2022-12-18T09:03:23.241Z,39.58
2022-12-18T09:05:51.202Z,38.61
2022-12-18T09:08:17.747Z,39.16
2022-12-18T09:10:45.558Z,38.53
2022-12-18T09:13:13.280Z,39.04
2022-12-18T09:15:50.540Z,40.46
2022-12-18T09:18:18.975Z,41.15
2022-12-18T09:20:46.200Z,41.41
2022-12-18T09:23:13.449Z,42.03
2022-12-18T09:25:40.713Z,42.36
2022-12-18T09:28:15.476Z,42.49
2022-12-18T09:30:46.292Z,42.99
2022-12-18T09:33:12.995Z,44.00
2022-12-18T09:35:41.089Z,43.85
2022-12-18T09:38:09.627Z,43.71
2022-12-18T09:40:43.286Z,42.73
2022-12-18T09:43:20.692Z,42.01
2022-12-18T09:45:53.027Z,42.89
2022-12-18T09:48:26.252Z,42.92
2022-12-18T09:51:00.652Z,43.53
2022-12-18T09:53:31.529Z,43.89
2022-12-18T09:56:01.549Z,44.72
2022-12-18T09:58:43.265Z,44.67
2022-12-18T10:01:17.461Z,45.30
2022-12-18T10:03:45.151Z,44.90
2022-12-18T10:06:19.468Z,45.67
2022-12-18T10:09:10.063Z,46.47
2022-12-18T10:11:56.154Z,47.59
2022-12-18T10:14:42.379Z,47.95
2022-12-18T10:17:21.913Z,47.46
2022-12-18T10:20:03.860Z,47.37
2022-12-18T10:22:30.374Z,46.51
2022-12-18T10:25:34.409Z,46.08
2022-12-18T10:28:19.053Z,46.17
2022-12-18T10:30:45.780Z,46.23
2022-12-18T10:33:20.142Z,47.17
2022-12-18T10:35:48.979Z,47.18
2022-12-18T10:38:15.489Z,47.29
2022-12-18T10:41:04.223Z,47.39
2022-12-18T10:43:36.786Z,47.73
2022-12-18T10:46:09.504Z,47.37
2022-12-18T10:48:49.942Z,47.31
2022-12-18T10:51:34.850Z,48.11
2022-12-18T10:54:25.279Z,48.74
2022-12-18T10:56:51.930Z,48.91
2022-12-18T10:59:19.551Z,48.56
2022-12-18T11:01:53.236Z,48.77
2022-12-18T11:04:33.878Z,47.85
2022-12-18T11:07:00.486Z,48.98
2022-12-18T11:09:33.521Z,48.72
2022-12-18T11:12:23.518Z,49.34
2022-12-18T11:14:52.707Z,49.00
2022-12-18T11:17:26.287Z,49.00
2022-12-18T11:19:58.777Z,48.72
2022-12-18T11:22:34.350Z,49.59
2022-12-18T11:25:33.523Z,50.17
2022-12-18T11:28:26.034Z,50.55
2022-12-18T11:31:13.499Z,50.77
2022-12-18T11:34:04.863Z,50.36
2022-12-18T11:36:39.809Z,50.45
2022-12-18T11:39:29.626Z,51.45
2022-12-18T11:42:11.139Z,50.51
2022-12-18T11:44:43.321Z,50.70
2022-12-18T11:47:21.034Z,50.53
2022-12-18T11:49:50.973Z,50.76
2022-12-18T11:52:27.630Z,51.51
2022-12-18T11:54:59.455Z,51.60
2022-12-18T11:57:38.290Z,51.27
2022-12-18T12:00:11.367Z,51.78
2022-12-18T12:03:01.179Z,51.50
2022-12-18T12:06:06.104Z,50.91
2022-12-18T12:08:55.798Z,50.51
2022-12-18T12:11:49.522Z,49.82
2022-12-18T12:14:25.096Z,49.64
2022-12-18T12:17:22.867Z,49.64
2022-12-18T12:19:55.978Z,49.47
2022-12-18T12:22:34.906Z,49.28
2022-12-18T12:25:30.427Z,50.31
2022-12-18T12:28:18.818Z,50.46
2022-12-18T12:31:07.056Z,49.93
2022-12-18T12:33:36.429Z,50.16
2022-12-18T12:36:17.349Z,50.84
2022-12-18T12:38:52.907Z,50.24
2022-12-18T12:41:45.199Z,49.49
2022-12-18T12:44:21.693Z,48.95
2022-12-18T12:46:50.290Z,49.51
2022-12-18T12:49:22.065Z,48.90
2022-12-18T12:52:14.746Z,47.64
2022-12-18T12:54:42.899Z,48.62
2022-12-18T12:57:29.447Z,48.67
2022-12-18T13:00:02.109Z,48.81
2022-12-18T13:02:38.198Z,47.71
2022-12-18T13:05:34.795Z,47.86
2022-12-18T13:08:10.502Z,46.91
2022-12-18T13:10:39.791Z,46.73
2022-12-18T13:13:17.200Z,45.94
2022-12-18T13:16:06.501Z,47.06
2022-12-18T13:18:34.427Z,47.57
2022-12-18T13:21:03.357Z,47.40
2022-12-18T13:23:38.760Z,48.62
2022-12-18T13:26:12.004Z,48.88
2022-12-18T13:28:47.618Z,49.43
2022-12-18T13:31:35.158Z,49.99
2022-12-18T13:34:29.416Z,49.91
2022-12-18T13:37:18.368Z,49.94
2022-12-18T13:39:45.019Z,49.95
2022-12-18T13:42:32.494Z,50.78
2022-12-18T13:44:59.138Z,50.99
2022-12-18T13:47:33.091Z,50.85
2022-12-18T13:50:01.474Z,50.76
2022-12-18T13:52:38.023Z,50.67
2022-12-18T13:55:08.883Z,50.43
2022-12-18T13:57:39.291Z,50.93
2022-12-18T14:00:29.502Z,50.55
2022-12-18T14:02:58.177Z,50.69
2022-12-18T14:05:27.865Z,51.00
2022-12-18T14:07:56.764Z,50.51
2022-12-18T14:10:48.605Z,50.64
2022-12-18T14:13:12.456Z,51.59
2022-12-18T14:15:48.849Z,51.33
2022-12-18T14:18:40.178Z,51.33
2022-12-18T14:21:07.845Z,52.26
2022-12-18T14:23:42.612Z,52.62
2022-12-18T14:26:29.728Z,52.57
2022-12-18T14:28:58.025Z,53.25
2022-12-18T14:31:29.508Z,53.44
2022-12-18T14:33:56.887Z,53.05
2022-12-18T14:36:28.490Z,52.58
2022-12-18T14:38:57.830Z,53.21
2022-12-18T14:41:25.685Z,53.51
2022-12-18T14:43:55.078Z,53.46
2022-12-18T14:46:33.807Z,53.48
2022-12-18T14:49:19.891Z,54.24
2022-12-18T14:51:56.314Z,54.12
2022-12-18T14:54:25.575Z,53.94
2022-12-18T14:57:05.318Z,54.59
2022-12-18T14:59:33.242Z,54.69
2022-12-18T15:02:29.477Z,55.04
2022-12-18T15:05:17.767Z,55.60
2022-12-18T15:07:50.286Z,56.06
2022-12-18T15:10:17.352Z,54.96
2022-12-18T15:12:45.369Z,54.77
2022-12-18T15:15:33.626Z,54.75
2022-12-18T15:18:01.544Z,54.23
2022-12-18T15:20:28.458Z,54.81
2022-12-18T15:22:55.034Z,54.57
2022-12-18T15:25:40.289Z,54.78
2022-12-18T15:28:36.120Z,53.96
2022-12-18T15:31:09.516Z,53.30
2022-12-18T15:33:38.963Z,53.95
2022-12-18T15:36:10.741Z,54.34
2022-12-18T15:38:37.385Z,54.88
2022-12-18T15:41:04.316Z,54.82
2022-12-18T15:43:37.824Z,54.30
2022-12-18T15:46:07.623Z,54.37
2022-12-18T15:48:38.803Z,54.44
2022-12-18T15:51:06.754Z,55.02
2022-12-18T15:53:34.701Z,54.88
2022-12-18T15:56:20.015Z,55.21
2022-12-18T15:58:47.195Z,54.90
2022-12-18T16:01:14.271Z,55.31
2022-12-18T16:03:41.467Z,54.69
2022-12-18T16:06:10.195Z,54.70
2022-12-18T16:08:37.194Z,54.95
2022-12-18T16:11:05.367Z,55.61
2022-12-18T16:13:31.998Z,55.79
2022-12-18T16:15:58.688Z,55.37
2022-12-18T16:18:25.581Z,56.05
2022-12-18T16:20:52.185Z,55.42
2022-12-18T16:23:18.693Z,55.89
2022-12-18T16:25:45.286Z,55.40
2022-12-18T16:28:11.825Z,54.84
2022-12-18T16:30:38.872Z,55.33
2022-12-18T16:33:07.433Z,54.80
2022-12-18T16:35:34.731Z,55.14
2022-12-18T16:38:01.286Z,55.51
2022-12-18T16:40:27.857Z,55.85
2022-12-18T16:42:54.401Z,55.75
2022-12-18T16:45:21.033Z,54.78
2022-12-18T16:47:47.683Z,55.28
2022-12-18T16:50:14.649Z,55.90
2022-12-18T16:52:41.546Z,56.15
2022-12-18T16:55:09.103Z,56.14
2022-12-18T16:57:36.304Z,56.16
2022-12-18T17:00:05.881Z,57.17
2022-12-18T17:02:33.050Z,56.83
2022-12-18T17:05:00.011Z,57.26
2022-12-18T17:07:28.293Z,57.00
2022-12-18T17:09:55.969Z,55.68
2022-12-18T17:12:23.656Z,56.25
2022-12-18T17:14:50.542Z,56.13
2022-12-18T17:17:22.619Z,56.90
2022-12-18T17:19:50.539Z,56.16
2022-12-18T17:22:17.742Z,55.54
2022-12-18T17:24:44.330Z,55.02
2022-12-18T17:27:10.907Z,54.43
2022-12-18T17:29:41.336Z,53.95
2022-12-18T17:32:13.842Z,54.01
2022-12-18T17:34:40.647Z,54.57
2022-12-18T17:37:07.687Z,53.32
2022-12-18T17:39:34.357Z,53.76
2022-12-18T17:42:01.764Z,54.69
2022-12-18T17:44:28.431Z,54.65
2022-12-18T17:46:55.479Z,53.59
2022-12-18T17:49:22.337Z,54.80
2022-12-18T17:51:49.246Z,55.39
2022-12-18T17:54:15.835Z,55.04
2022-12-18T17:56:42.735Z,54.61
2022-12-18T17:59:11.297Z,54.79
2022-12-18T18:01:44.074Z,54.19
2022-12-18T18:04:11.521Z,54.41
2022-12-18T18:06:39.378Z,54.55
2022-12-18T18:09:16.039Z,53.98
2022-12-18T18:12:04.329Z,55.19
2022-12-18T18:14:32.053Z,54.61
2022-12-18T18:17:04.841Z,55.00
2022-12-18T18:19:32.665Z,54.56
2022-12-18T18:21:59.274Z,55.57
2022-12-18T18:24:26.172Z,55.01
2022-12-18T18:26:56.597Z,54.09
2022-12-18T18:29:26.879Z,53.58
2022-12-18T18:31:54.726Z,54.04
2022-12-18T18:34:24.511Z,53.76
2022-12-18T18:36:51.836Z,53.67
2022-12-18T18:39:19.399Z,53.77
2022-12-18T18:41:47.809Z,53.95
2022-12-18T18:44:15.354Z,54.23
2022-12-18T18:46:42.092Z,54.15
2022-12-18T18:49:09.483Z,53.94
2022-12-18T18:51:36.872Z,54.28
2022-12-18T18:54:03.643Z,53.83
2022-12-18T18:59:18.177Z,54.29
2022-12-18T19:01:45.486Z,53.47
2022-12-18T19:04:12.576Z,52.80
2022-12-18T19:06:39.233Z,53.58
2022-12-18T19:09:06.653Z,53.21
2022-12-18T19:11:53.657Z,52.44
2022-12-18T19:14:23.597Z,53.09
2022-12-18T19:17:14.437Z,52.80
2022-12-18T19:19:42.208Z,53.06
2022-12-18T19:22:10.561Z,52.70
2022-12-18T19:24:40.658Z,52.50
2022-12-18T19:27:07.950Z,52.55
2022-12-18T19:29:34.513Z,52.93
2022-12-18T19:32:04.078Z,52.56
2022-12-18T19:34:32.070Z,52.27
2022-12-18T19:37:00.050Z,52.73
2022-12-18T19:39:27.319Z,52.42
2022-12-18T19:41:54.550Z,52.78
2022-12-18T19:44:21.691Z,52.78
2022-12-18T19:46:51.651Z,52.38
2022-12-18T19:49:18.591Z,52.81
2022-12-18T19:51:45.972Z,52.84
2022-12-18T19:54:17.051Z,52.78
2022-12-18T19:56:45.016Z,51.83
2022-12-18T19:59:11.968Z,52.15
2022-12-18T20:01:38.716Z,51.84
2022-12-18T20:04:05.845Z,52.28
2022-12-18T20:06:35.247Z,51.66
2022-12-18T20:09:04.853Z,51.44
2022-12-18T20:11:33.539Z,51.49
2022-12-18T20:14:07.466Z,51.52
2022-12-18T20:16:34.149Z,51.51
2022-12-18T20:19:02.803Z,51.63
2022-12-18T20:21:29.435Z,51.89
2022-12-18T20:23:56.636Z,51.32
2022-12-18T20:26:23.933Z,51.81
2022-12-18T20:28:52.175Z,51.96
2022-12-18T20:31:18.757Z,51.86
2022-12-18T20:33:48.607Z,51.02
2022-12-18T20:36:21.269Z,50.83
2022-12-18T20:38:49.518Z,50.96
2022-12-18T20:41:19.228Z,49.72
2022-12-18T20:43:46.142Z,50.18
2022-12-18T20:46:15.018Z,50.36
2022-12-18T20:48:43.249Z,50.37
2022-12-18T20:51:12.965Z,50.81
2022-12-18T20:53:41.938Z,50.70
2022-12-18T20:56:21.640Z,50.88
2022-12-18T20:58:50.576Z,50.93
2022-12-18T21:01:23.885Z,50.69
2022-12-18T21:03:51.759Z,49.14
2022-12-18T21:06:21.309Z,49.47
2022-12-18T21:08:48.633Z,49.48
2022-12-18T21:11:39.307Z,49.08
2022-12-18T21:14:12.241Z,49.46
2022-12-18T21:16:45.718Z,49.69
2022-12-18T21:19:14.791Z,49.93
2022-12-18T21:21:43.107Z,48.64
2022-12-18T21:24:10.965Z,49.27
2022-12-18T21:26:44.930Z,49.34
2022-12-18T21:29:18.682Z,49.54
2022-12-18T21:31:46.092Z,49.99
2022-12-18T21:34:18.585Z,51.10
2022-12-18T21:36:46.530Z,50.81
2022-12-18T21:39:14.821Z,51.04
2022-12-18T21:42:00.623Z,51.08
2022-12-18T21:44:27.398Z,51.74
2022-12-18T21:46:58.955Z,52.10
2022-12-18T21:49:30.477Z,52.55
2022-12-18T21:51:58.708Z,51.04
2022-12-18T21:54:28.323Z,51.33
2022-12-18T21:56:59.987Z,50.33
2022-12-18T21:59:28.071Z,50.89
2022-12-18T22:01:57.978Z,51.24
2022-12-18T22:04:25.899Z,50.83
2022-12-18T22:06:53.370Z,50.08
2022-12-18T22:09:21.971Z,50.30
2022-12-18T22:11:49.646Z,51.29
2022-12-18T22:14:17.507Z,52.81
2022-12-18T22:16:44.526Z,51.72
2022-12-18T22:19:12.063Z,51.25
2022-12-18T22:21:43.205Z,51.92
2022-12-18T22:24:15.131Z,51.17
2022-12-18T22:26:43.365Z,51.36
2022-12-18T22:29:36.924Z,52.07
2022-12-18T22:32:05.538Z,51.82
2022-12-18T22:34:36.397Z,52.38
2022-12-18T22:37:03.761Z,51.91
2022-12-18T22:39:30.653Z,52.40
2022-12-18T22:41:57.806Z,52.75
2022-12-18T22:44:25.226Z,52.89
2022-12-18T22:47:05.402Z,52.65
2022-12-18T22:49:35.481Z,52.68
2022-12-18T22:52:07.242Z,53.41
2022-12-18T22:54:33.912Z,52.90
2022-12-18T22:57:00.533Z,53.22
2022-12-18T22:59:27.389Z,52.80
2022-12-18T23:01:58.442Z,52.87
2022-12-18T23:04:34.278Z,52.40
2022-12-18T23:07:05.456Z,52.49
2022-12-18T23:09:32.811Z,53.15
2022-12-18T23:11:59.429Z,53.04
2022-12-18T23:14:27.081Z,52.78
2022-12-18T23:16:53.661Z,52.58
2022-12-18T23:19:20.819Z,53.03
2022-12-18T23:21:47.483Z,53.53
2022-12-18T23:24:14.762Z,53.18
2022-12-18T23:26:42.722Z,52.45
2022-12-18T23:29:09.315Z,52.90
2022-12-18T23:31:38.507Z,53.88
2022-12-18T23:34:06.321Z,54.32
2022-12-18T23:36:46.034Z,54.48
2022-12-18T23:39:17.191Z,53.47
2022-12-18T23:42:00.050Z,53.11
2022-12-18T23:44:27.498Z,53.78
2022-12-18T23:46:54.546Z,54.13
2022-12-18T23:49:21.520Z,54.61
2022-12-18T23:51:48.447Z,53.73
2022-12-18T23:54:15.496Z,53.60
2022-12-18T23:56:42.888Z,54.25
2022-12-18T23:59:09.656Z,53.66
